Time;durP1;ratioP1;P1;durP2;ratioP2;P2;SDS_P1;SDS_P2;PMS_P1;PMS_P2;Temp;Humidity;BMP_temperature;BMP_pressure;BME280_temperature;BME280_humidity;BME280_pressure;Samples;Min_cycle;Max_cycle;Signal;HPM_P1;HPM_P2
2021/05/30 00:00:06;;;;;;;1.95;0.73;;;18.40;62.60;18.50;99800.00;;;;338997;28;84572;-92
2021/05/30 00:00:19;;;;;;;2.03;0.80;;;18.40;62.60;18.30;99802.00;;;;337338;28;83735;-91
2021/05/30 00:00:31;;;;;;;1.48;0.40;;;18.40;62.60;18.40;99795.00;;;;341645;28;85534;-91
2021/05/30 00:00:42;;;;;;;1.67;0.40;;;18.40;62.40;18.40;99799.00;;;;338662;28;83455;-92
2021/05/30 00:00:54;;;;;;;2.42;0.40;;;18.40;62.50;18.40;99802.00;;;;337205;28;89603;-91
2021/05/30 00:01:06;;;;;;;2.38;0.38;;;18.40;62.50;18.30;99799.00;;;;341710;28;84330;-93
2021/05/30 00:01:18;;;;;;;2.33;0.52;;;18.40;62.50;18.30;99799.00;;;;339334;28;89692;-92
2021/05/30 00:01:30;;;;;;;1.10;0.50;;;18.40;62.50;18.20;99801.00;;;;338952;28;83287;-89
2021/05/30 00:01:42;;;;;;;1.50;0.50;;;18.40;62.50;18.20;99800.00;;;;341331;28;91101;-92
2021/05/30 00:01:54;;;;;;;1.73;0.50;;;18.40;62.50;18.10;99796.00;;;;341679;28;82558;-92
2021/05/30 00:02:06;;;;;;;1.70;0.52;;;18.40;62.50;18.00;99802.00;;;;341278;28;92364;-92
2021/05/30 00:02:18;;;;;;;1.35;0.43;;;18.30;62.50;18.10;99790.00;;;;343075;28;83013;-93
2021/05/30 00:02:30;;;;;;;1.75;0.50;;;18.30;62.60;18.20;99799.00;;;;339344;28;89544;-91
2021/05/30 00:02:42;;;;;;;2.45;0.50;;;18.30;62.70;18.10;99794.00;;;;341564;28;83257;-91
2021/05/30 00:02:54;;;;;;;2.30;0.40;;;18.30;62.50;18.10;99795.00;;;;338473;28;88739;-90
2021/05/30 00:03:06;;;;;;;2.50;0.40;;;18.30;62.80;18.20;99800.00;;;;341022;28;83337;-91
2021/05/30 00:03:17;;;;;;;2.67;0.40;;;18.30;62.70;18.20;99795.00;;;;338604;28;88572;-92
2021/05/30 00:03:30;;;;;;;2.03;0.50;;;18.20;62.80;18.10;99795.00;;;;341730;28;82483;-91
2021/05/30 00:03:41;;;;;;;1.95;0.40;;;18.20;62.80;18.10;99789.00;;;;341897;28;93878;-92
2021/05/30 00:03:53;;;;;;;2.17;0.40;;;18.20;62.80;18.20;99799.00;;;;340208;28;83394;-90
2021/05/30 00:04:05;;;;;;;1.50;0.40;;;18.30;63.00;18.20;99802.00;;;;336741;28;88313;-89
2021/05/30 00:04:17;;;;;;;0.85;0.35;;;18.20;62.90;18.20;99795.00;;;;339980;28;82552;-91
2021/05/30 00:04:30;;;;;;;0.68;0.30;;;18.20;62.80;18.20;99795.00;;;;337437;28;90215;-90
2021/05/30 00:04:42;;;;;;;0.60;0.22;;;18.20;62.80;18.20;99795.00;;;;339461;28;84087;-90
2021/05/30 00:04:54;;;;;;;0.98;0.40;;;18.20;63.00;18.10;99796.00;;;;337373;28;89965;-91
2021/05/30 00:05:07;;;;;;;1.10;0.40;;;18.20;63.00;18.10;99798.00;;;;341772;28;83293;-91
2021/05/30 00:05:19;;;;;;;1.23;0.30;;;18.20;62.90;18.10;99795.00;;;;339847;28;93534;-91
2021/05/30 00:05:31;;;;;;;1.20;0.30;;;18.20;62.90;18.20;99800.00;;;;336398;28;84132;-92
2021/05/30 00:05:43;;;;;;;1.73;0.40;;;18.20;62.90;18.20;99795.00;;;;337222;28;93418;-91
2021/05/30 00:05:55;;;;;;;1.90;0.50;;;18.20;62.90;18.20;99795.00;;;;337587;28;83146;-91
2021/05/30 00:06:07;;;;;;;2.50;0.65;;;18.20;62.90;18.20;99793.00;;;;340116;28;88036;-92
2021/05/30 00:06:19;;;;;;;1.65;0.43;;;18.20;63.00;18.20;99788.00;;;;339102;28;82453;-92
2021/05/30 00:06:33;;;;;;;1.90;0.40;;;18.20;63.10;18.10;99792.00;;;;339552;28;88735;-91
2021/05/30 00:06:45;;;;;;;1.90;0.60;;;18.20;62.90;18.00;99795.00;;;;340370;28;83401;-91
2021/05/30 00:06:57;;;;;;;1.73;0.60;;;18.20;62.90;18.20;99795.00;;;;339710;28;90700;-92
2021/05/30 00:07:08;;;;;;;1.75;0.57;;;18.20;62.90;18.20;99788.00;;;;340016;28;83996;-91
2021/05/30 00:07:22;;;;;;;1.30;0.30;;;18.20;63.20;18.10;99793.00;;;;338773;28;88056;-91
2021/05/30 00:07:34;;;;;;;0.70;0.28;;;18.20;63.30;18.20;99794.00;;;;341548;28;82614;-88
2021/05/30 00:07:46;;;;;;;1.08;0.30;;;18.20;63.10;18.20;99794.00;;;;341141;28;90459;-92
2021/05/30 00:07:58;;;;;;;1.02;0.30;;;18.20;62.90;18.10;99791.00;;;;343109;28;83812;-92
2021/05/30 00:08:11;;;;;;;0.85;0.38;;;18.20;63.00;18.20;99790.00;;;;340120;28;87925;-90
2021/05/30 00:08:23;;;;;;;1.00;0.50;;;18.20;63.00;18.10;99794.00;;;;341448;28;83446;-91
2021/05/30 00:08:35;;;;;;;1.00;0.40;;;18.20;62.90;18.10;99794.00;;;;339909;28;91621;-91
2021/05/30 00:08:47;;;;;;;1.05;0.40;;;18.20;63.10;18.10;99788.00;;;;339807;28;83493;-91
2021/05/30 00:09:00;;;;;;;1.60;0.43;;;18.20;63.10;18.10;99798.00;;;;341412;28;89762;-92
2021/05/30 00:09:12;;;;;;;1.90;0.40;;;18.20;63.10;18.20;99794.00;;;;340446;28;83372;-92
2021/05/30 00:09:23;;;;;;;2.25;0.38;;;18.20;63.20;18.20;99788.00;;;;339142;28;91331;-91
2021/05/30 00:09:38;;;;;;;2.95;0.30;;;18.20;63.20;18.20;99790.00;;;;341819;28;83291;-92
2021/05/30 00:09:53;;;;;;;2.97;0.32;;;18.20;63.10;18.20;99789.00;;;;339702;28;90126;-92
2021/05/30 00:10:06;;;;;;;3.58;0.40;;;18.20;63.10;18.30;99790.00;;;;340138;28;82668;-91
2021/05/30 00:10:18;;;;;;;2.83;0.52;;;18.20;63.10;18.20;99787.00;;;;339682;28;88700;-91
2021/05/30 00:10:31;;;;;;;4.10;0.85;;;18.20;63.20;18.20;99790.00;;;;340441;28;83269;-91
2021/05/30 00:10:43;;;;;;;2.88;0.70;;;18.20;63.10;18.20;99788.00;;;;340330;28;90311;-91
2021/05/30 00:10:55;;;;;;;1.98;0.45;;;18.20;63.00;18.20;99790.00;;;;341787;28;84823;-92
2021/05/30 00:11:07;;;;;;;0.80;0.30;;;18.20;63.20;18.10;99782.00;;;;340939;28;91167;-91
2021/05/30 00:11:19;;;;;;;1.88;0.43;;;18.20;62.90;17.90;99788.00;;;;340155;28;83783;-91
2021/05/30 00:11:36;;;;;;;2.00;0.55;;;18.20;62.90;18.00;99783.00;;;;336087;28;89585;-91
2021/05/30 00:12:00;;;;;;;1.58;0.50;;;18.20;63.00;18.10;99788.00;;;;341087;28;82531;-91
2021/05/30 00:12:12;;;;;;;2.03;0.40;;;18.20;63.10;18.10;99786.00;;;;343233;28;90775;-91
2021/05/30 00:12:25;;;;;;;2.22;0.47;;;18.10;63.20;18.10;99785.00;;;;340885;28;82409;-90
2021/05/30 00:12:37;;;;;;;1.08;0.32;;;18.10;63.20;18.20;99788.00;;;;340417;28;86980;-92
2021/05/30 00:12:49;;;;;;;0.70;0.30;;;18.10;63.20;18.10;99771.00;;;;338850;28;82544;-91
2021/05/30 00:13:01;;;;;;;0.63;0.40;;;18.10;63.20;18.10;99787.00;;;;340036;28;92614;-91
2021/05/30 00:13:12;;;;;;;0.52;0.32;;;18.10;63.00;18.10;99782.00;;;;340914;28;82339;-92
2021/05/30 00:13:25;;;;;;;0.70;0.30;;;18.10;63.00;18.20;99785.00;;;;337762;28;89905;-91
2021/05/30 00:13:36;;;;;;;1.48;0.40;;;18.10;63.10;18.20;99781.00;;;;339490;28;84261;-91
2021/05/30 00:13:48;;;;;;;2.00;0.50;;;18.10;63.30;18.20;99777.00;;;;338588;28;90079;-92
2021/05/30 00:14:05;;;;;;;1.90;0.40;;;18.10;63.20;18.20;99779.00;;;;339418;28;83973;-91
2021/05/30 00:14:17;;;;;;;2.03;0.40;;;18.10;63.20;18.20;99777.00;;;;338608;28;93750;-89
2021/05/30 00:14:30;;;;;;;2.00;0.47;;;18.20;63.10;18.20;99783.00;;;;339472;28;83803;-90
2021/05/30 00:14:41;;;;;;;1.88;0.40;;;18.10;62.90;18.20;99781.00;;;;338900;28;92702;-90
2021/05/30 00:14:53;;;;;;;2.17;0.30;;;18.20;63.00;18.10;99784.00;;;;340445;28;85504;-91
2021/05/30 00:15:06;;;;;;;2.03;0.30;;;18.20;63.10;18.20;99780.00;;;;339941;28;92811;-92
2021/05/30 00:15:18;;;;;;;1.30;0.38;;;18.20;63.20;18.10;99777.00;;;;338107;28;85508;-89
2021/05/30 00:15:30;;;;;;;0.90;0.50;;;18.20;63.10;18.00;99786.00;;;;340573;28;88593;-92
2021/05/30 00:15:42;;;;;;;1.27;0.60;;;18.20;63.10;18.00;99779.00;;;;338015;28;83267;-90
2021/05/30 00:15:54;;;;;;;1.23;0.52;;;18.10;63.10;18.00;99788.00;;;;339119;28;90522;-88
2021/05/30 00:16:06;;;;;;;1.27;0.40;;;18.20;63.10;18.00;99778.00;;;;338242;28;83423;-91
2021/05/30 00:16:18;;;;;;;1.83;0.43;;;18.20;63.30;17.90;99784.00;;;;338994;28;92503;-91
2021/05/30 00:16:30;;;;;;;1.90;0.43;;;18.10;63.10;18.10;99782.00;;;;339566;28;82375;-91
2021/05/30 00:16:42;;;;;;;1.95;0.30;;;18.10;63.00;18.00;99769.00;;;;341973;28;88532;-92
2021/05/30 00:16:54;;;;;;;1.85;0.35;;;18.10;63.10;17.90;99771.00;;;;340454;28;82637;-91
2021/05/30 00:17:06;;;;;;;0.80;0.30;;;18.10;63.30;18.00;99772.00;;;;338980;28;90039;-90
2021/05/30 00:17:18;;;;;;;0.73;0.30;;;18.10;63.30;18.00;99780.00;;;;340496;28;82475;-91
2021/05/30 00:17:30;;;;;;;1.27;0.30;;;18.10;63.90;18.00;99779.00;;;;340745;28;90068;-92
2021/05/30 00:17:41;;;;;;;1.30;0.20;;;18.10;63.20;18.10;99780.00;;;;341079;28;82276;-92
2021/05/30 00:17:54;;;;;;;1.30;0.28;;;18.10;63.20;18.00;99774.00;;;;340504;28;89696;-91
2021/05/30 00:18:06;;;;;;;0.98;0.40;;;18.10;63.30;18.10;99775.00;;;;340737;28;84883;-90
2021/05/30 00:18:18;;;;;;;1.02;0.40;;;18.00;63.20;18.00;99778.00;;;;340484;28;92345;-91
2021/05/30 00:18:29;;;;;;;1.73;0.32;;;18.10;63.40;18.10;99778.00;;;;340587;28;82557;-92
2021/05/30 00:18:41;;;;;;;2.60;0.40;;;18.00;63.30;17.90;99780.00;;;;340173;28;91052;-89
2021/05/30 00:18:53;;;;;;;2.80;0.73;;;18.10;63.30;18.00;99772.00;;;;342969;28;84026;-91
2021/05/30 00:19:05;;;;;;;1.40;0.60;;;18.10;63.30;18.00;99774.00;;;;340450;28;88041;-88
2021/05/30 00:19:18;;;;;;;1.25;0.55;;;18.00;63.40;18.10;99777.00;;;;340880;28;83647;-89
2021/05/30 00:19:30;;;;;;;1.17;0.38;;;18.00;63.40;18.00;99774.00;;;;340501;28;89513;-91
2021/05/30 00:19:42;;;;;;;1.20;0.40;;;18.00;63.30;18.10;99775.00;;;;342292;28;82395;-88
2021/05/30 00:19:54;;;;;;;0.85;0.40;;;18.00;63.20;18.00;99777.00;;;;342073;28;89193;-90
2021/05/30 00:20:08;;;;;;;0.80;0.30;;;18.00;63.30;18.00;99776.00;;;;341172;28;83417;-92
2021/05/30 00:20:20;;;;;;;0.70;0.30;;;18.00;63.60;17.90;99777.00;;;;341480;28;89611;-92
2021/05/30 00:20:31;;;;;;;1.63;0.70;;;18.00;63.70;18.00;99776.00;;;;342026;28;82424;-91
2021/05/30 00:20:43;;;;;;;2.10;0.70;;;18.10;63.50;18.10;99770.00;;;;342848;28;89331;-91
2021/05/30 00:20:55;;;;;;;1.58;0.35;;;18.00;63.30;18.10;99771.00;;;;343278;28;83305;-91
2021/05/30 00:21:07;;;;;;;1.08;0.20;;;18.00;63.30;18.00;99774.00;;;;336637;28;88507;-88
2021/05/30 00:21:19;;;;;;;1.70;0.20;;;18.00;64.10;18.10;99771.00;;;;340497;28;83825;-88
2021/05/30 00:21:31;;;;;;;1.80;0.20;;;18.00;63.40;18.10;99769.00;;;;338961;28;90113;-92
2021/05/30 00:21:42;;;;;;;1.67;0.30;;;18.00;63.30;17.90;99777.00;;;;339625;28;83365;-91
2021/05/30 00:21:54;;;;;;;1.35;0.40;;;18.00;63.40;18.00;99764.00;;;;339496;28;90213;-91
2021/05/30 00:22:06;;;;;;;1.50;0.40;;;18.00;63.30;18.00;99776.00;;;;342018;28;83819;-91
2021/05/30 00:22:18;;;;;;;1.65;0.32;;;18.10;63.30;18.00;99768.00;;;;340346;28;89253;-92
2021/05/30 00:22:30;;;;;;;1.65;0.40;;;18.00;63.40;18.00;99768.00;;;;343133;28;84272;-92
2021/05/30 00:22:42;;;;;;;2.80;0.47;;;18.00;63.40;17.90;99768.00;;;;339646;28;89669;-90
2021/05/30 00:22:54;;;;;;;2.53;0.38;;;18.00;63.20;18.00;99774.00;;;;342160;28;82459;-91
2021/05/30 00:23:05;;;;;;;2.40;0.35;;;18.10;63.40;17.70;99775.00;;;;340410;28;88914;-91
2021/05/30 00:23:17;;;;;;;2.10;0.40;;;18.00;63.30;17.80;99767.00;;;;339701;28;82453;-89
2021/05/30 00:23:29;;;;;;;1.85;0.30;;;18.00;63.30;17.90;99768.00;;;;339106;28;89108;-91
2021/05/30 00:23:41;;;;;;;1.67;0.35;;;17.90;63.30;17.80;99774.00;;;;339266;28;84288;-90
2021/05/30 00:23:53;;;;;;;0.95;0.30;;;18.00;63.50;17.80;99778.00;;;;340212;28;90084;-90
2021/05/30 00:24:06;;;;;;;1.00;0.43;;;17.90;63.40;17.90;99769.00;;;;339494;28;82495;-90
2021/05/30 00:24:18;;;;;;;1.08;0.60;;;18.00;63.50;17.90;99766.00;;;;339851;28;90511;-91
2021/05/30 00:24:30;;;;;;;1.58;0.60;;;18.00;63.60;17.90;99770.00;;;;340690;28;82486;-91
2021/05/30 00:24:42;;;;;;;1.40;0.40;;;17.90;63.60;17.90;99772.00;;;;340192;28;89686;-91
2021/05/30 00:24:54;;;;;;;1.08;0.35;;;17.90;63.40;17.90;99775.00;;;;338507;28;83705;-91
2021/05/30 00:25:07;;;;;;;1.40;0.20;;;18.00;63.50;17.90;99765.00;;;;339039;28;88636;-91
2021/05/30 00:25:19;;;;;;;1.70;0.30;;;17.90;63.50;17.90;99767.00;;;;337858;28;83120;-91
2021/05/30 00:25:30;;;;;;;1.65;0.30;;;18.00;63.70;17.90;99776.00;;;;338944;28;87062;-91
2021/05/30 00:25:42;;;;;;;1.27;0.35;;;17.90;63.50;17.90;99771.00;;;;338214;28;83739;-91
2021/05/30 00:25:54;;;;;;;1.15;0.40;;;17.90;63.50;18.00;99768.00;;;;341546;28;90196;-89
2021/05/30 00:26:06;;;;;;;1.15;0.35;;;18.00;64.10;18.00;99768.00;;;;338155;28;83335;-91
2021/05/30 00:26:18;;;;;;;1.30;0.30;;;17.90;64.30;18.00;99764.00;;;;340091;28;90473;-91
2021/05/30 00:26:30;;;;;;;1.13;0.30;;;18.00;63.70;17.80;99777.00;;;;339762;28;83940;-90
2021/05/30 00:26:41;;;;;;;1.42;0.50;;;17.90;63.70;17.80;99765.00;;;;340783;28;88199;-91
2021/05/30 00:26:53;;;;;;;2.15;0.60;;;17.90;63.70;17.70;99768.00;;;;343300;28;83388;-91
2021/05/30 00:27:06;;;;;;;2.35;0.55;;;17.90;63.70;17.80;99774.00;;;;341561;28;89531;-92
2021/05/30 00:27:17;;;;;;;2.28;0.50;;;17.90;63.70;17.80;99771.00;;;;338787;28;82815;-91
2021/05/30 00:27:29;;;;;;;1.23;0.40;;;17.90;63.70;17.80;99771.00;;;;338195;28;89798;-91
2021/05/30 00:27:41;;;;;;;0.88;0.40;;;17.90;63.80;17.80;99769.00;;;;338881;28;82480;-89
2021/05/30 00:27:53;;;;;;;0.70;0.30;;;17.90;64.30;17.70;99766.00;;;;339726;28;91701;-88
2021/05/30 00:28:05;;;;;;;1.50;0.40;;;17.90;63.70;17.80;99774.00;;;;339532;28;83276;-91
2021/05/30 00:28:17;;;;;;;2.08;0.50;;;17.90;63.70;17.70;99783.00;;;;340078;28;89250;-91
2021/05/30 00:28:29;;;;;;;2.60;0.60;;;17.90;63.90;17.70;99777.00;;;;343448;28;83297;-91
2021/05/30 00:28:41;;;;;;;2.03;0.57;;;17.90;64.00;17.80;99777.00;;;;340374;28;88919;-91
2021/05/30 00:28:53;;;;;;;2.33;0.43;;;17.90;64.00;17.70;99773.00;;;;342836;28;83857;-91
2021/05/30 00:29:05;;;;;;;3.00;0.40;;;17.80;64.00;17.70;99779.00;;;;340112;28;87928;-88
2021/05/30 00:29:17;;;;;;;2.90;0.30;;;17.80;64.00;17.70;99773.00;;;;343397;28;83441;-92
2021/05/30 00:29:28;;;;;;;1.00;0.30;;;17.80;64.00;17.70;99771.00;;;;341044;28;91346;-90
2021/05/30 00:29:40;;;;;;;1.55;0.30;;;17.80;64.10;17.70;99765.00;;;;342043;28;83098;-92
2021/05/30 00:29:54;;;;;;;1.60;0.30;;;17.80;64.10;17.70;99775.00;;;;339535;28;91297;-90
2021/05/30 00:30:06;;;;;;;2.30;0.40;;;17.80;64.10;17.80;99771.00;;;;341155;28;84175;-91
2021/05/30 00:30:19;;;;;;;2.13;0.40;;;17.80;64.20;17.80;99776.00;;;;339143;28;92300;-89
2021/05/30 00:30:31;;;;;;;1.50;0.30;;;17.80;64.10;17.80;99773.00;;;;342928;28;82426;-92
2021/05/30 00:30:42;;;;;;;0.82;0.30;;;17.80;64.20;17.80;99770.00;;;;341969;28;88726;-89
2021/05/30 00:30:54;;;;;;;0.88;0.40;;;17.80;64.20;17.70;99774.00;;;;338467;28;83599;-88
2021/05/30 00:31:06;;;;;;;1.00;0.47;;;17.70;64.20;17.70;99772.00;;;;342752;28;91609;-86
2021/05/30 00:31:18;;;;;;;1.02;0.40;;;17.70;64.20;17.80;99773.00;;;;340280;28;82807;-91
2021/05/30 00:31:30;;;;;;;1.10;0.38;;;17.80;64.20;17.80;99768.00;;;;340298;28;88297;-90
2021/05/30 00:31:42;;;;;;;1.20;0.30;;;17.80;64.30;17.80;99771.00;;;;341965;28;82584;-90
2021/05/30 00:31:54;;;;;;;1.67;0.30;;;17.80;64.20;17.60;99760.00;;;;341659;28;88555;-89
2021/05/30 00:32:06;;;;;;;2.10;0.40;;;17.80;64.10;17.50;99773.00;;;;344494;28;82506;-88
2021/05/30 00:32:23;;;;;;;1.55;0.38;;;17.70;64.00;17.60;99770.00;;;;344276;28;91503;-91
2021/05/30 00:32:34;;;;;;;1.10;0.30;;;17.70;64.20;17.60;99768.00;;;;343312;28;82407;-90
2021/05/30 00:32:47;;;;;;;0.70;0.20;;;17.70;64.20;17.70;99774.00;;;;343459;28;88787;-88
2021/05/30 00:32:59;;;;;;;0.50;0.20;;;17.70;64.20;17.80;99773.00;;;;341470;28;82400;-90
2021/05/30 00:33:13;;;;;;;1.20;0.30;;;17.70;64.20;17.60;99770.00;;;;339961;28;88675;-91
2021/05/30 00:33:25;;;;;;;1.60;0.43;;;17.70;64.20;17.70;99780.00;;;;341936;28;84473;-90
2021/05/30 00:33:37;;;;;;;0.95;0.40;;;17.70;64.30;17.70;99769.00;;;;341552;28;90476;-91
2021/05/30 00:33:49;;;;;;;1.15;0.50;;;17.70;64.30;17.70;99772.00;;;;341015;28;83511;-88
2021/05/30 00:34:01;;;;;;;1.38;0.50;;;17.70;64.10;17.60;99767.00;;;;342454;28;88443;-89
2021/05/30 00:34:12;;;;;;;1.10;0.40;;;17.70;64.10;17.50;99770.00;;;;342451;28;84110;-88
2021/05/30 00:34:25;;;;;;;1.23;0.50;;;17.70;64.10;17.40;99762.00;;;;342619;28;89321;-91
2021/05/30 00:34:36;;;;;;;1.50;0.40;;;17.70;64.10;17.40;99775.00;;;;342643;28;84064;-89
2021/05/30 00:34:48;;;;;;;1.45;0.40;;;17.60;64.70;17.50;99774.00;;;;344201;28;90952;-89
2021/05/30 00:35:00;;;;;;;0.93;0.40;;;17.60;64.40;17.60;99770.00;;;;345765;28;84484;-87
2021/05/30 00:35:12;;;;;;;1.75;0.50;;;17.60;64.40;17.60;99778.00;;;;342893;28;91423;-90
2021/05/30 00:35:24;;;;;;;2.95;0.45;;;17.60;64.50;17.60;99773.00;;;;340234;28;82831;-88
2021/05/30 00:35:36;;;;;;;3.33;0.50;;;17.60;64.50;17.70;99772.00;;;;341686;28;88732;-91
2021/05/30 00:35:47;;;;;;;3.08;0.47;;;17.70;65.10;17.70;99768.00;;;;343258;28;84483;-89
2021/05/30 00:35:59;;;;;;;2.03;0.35;;;17.70;64.40;17.70;99764.00;;;;342602;28;91336;-88
2021/05/30 00:36:12;;;;;;;1.48;0.32;;;17.70;64.40;17.70;99767.00;;;;341459;28;82545;-89
2021/05/30 00:36:24;;;;;;;1.20;0.30;;;17.60;64.40;17.60;99765.00;;;;342590;28;90062;-88
2021/05/30 00:36:35;;;;;;;1.23;0.35;;;17.70;64.50;17.70;99764.00;;;;343066;28;83719;-91
2021/05/30 00:36:47;;;;;;;0.90;0.30;;;17.60;64.40;17.70;99768.00;;;;340478;28;91722;-89
2021/05/30 00:36:59;;;;;;;1.20;0.40;;;17.70;64.40;17.70;99769.00;;;;342532;28;82359;-90
2021/05/30 00:37:11;;;;;;;1.00;0.30;;;17.60;64.40;17.70;99770.00;;;;341274;28;88990;-88
2021/05/30 00:37:22;;;;;;;1.02;0.45;;;17.70;64.40;17.70;99764.00;;;;341133;28;84018;-89
2021/05/30 00:37:34;;;;;;;0.95;0.40;;;17.60;64.30;17.70;99772.00;;;;340249;28;91860;-90
2021/05/30 00:37:46;;;;;;;1.23;0.38;;;17.70;64.40;17.70;99770.00;;;;342083;28;82474;-89
2021/05/30 00:37:58;;;;;;;1.33;0.40;;;17.70;64.30;17.70;99765.00;;;;342365;28;91394;-88
2021/05/30 00:38:10;;;;;;;1.30;0.40;;;17.70;64.20;17.70;99761.00;;;;340627;28;83814;-90
2021/05/30 00:38:22;;;;;;;1.67;0.40;;;17.70;64.20;17.70;99761.00;;;;339281;28;89279;-88
2021/05/30 00:38:34;;;;;;;2.20;0.45;;;17.70;64.20;17.70;99768.00;;;;342011;28;82760;-90
2021/05/30 00:38:46;;;;;;;2.25;0.45;;;17.70;64.10;17.70;99769.00;;;;341132;28;88741;-88
2021/05/30 00:38:57;;;;;;;1.13;0.40;;;17.70;64.20;17.70;99767.00;;;;342030;28;82424;-91
2021/05/30 00:39:09;;;;;;;1.08;0.38;;;17.70;64.20;17.70;99771.00;;;;341537;28;91565;-89
2021/05/30 00:39:21;;;;;;;1.35;0.50;;;17.70;64.20;17.80;99765.00;;;;341975;28;83705;-87
2021/05/30 00:39:33;;;;;;;1.65;0.50;;;17.70;64.20;17.80;99770.00;;;;341947;28;91843;-90
2021/05/30 00:39:45;;;;;;;1.10;0.38;;;17.70;64.10;17.80;99767.00;;;;343354;28;82571;-90
2021/05/30 00:39:57;;;;;;;2.13;0.35;;;17.70;64.10;17.70;99764.00;;;;340969;28;90542;-88
2021/05/30 00:40:09;;;;;;;2.90;0.40;;;17.70;64.10;17.70;99769.00;;;;343061;28;82687;-87
2021/05/30 00:40:22;;;;;;;3.22;0.40;;;17.70;64.00;17.70;99779.00;;;;340253;28;89042;-91
2021/05/30 00:40:35;;;;;;;1.65;0.30;;;17.80;64.10;17.70;99771.00;;;;340789;28;84873;-87
2021/05/30 00:40:47;;;;;;;1.02;0.30;;;17.70;64.00;17.80;99771.00;;;;339233;28;91154;-88
2021/05/30 00:40:58;;;;;;;1.08;0.35;;;17.80;64.20;17.80;99771.00;;;;340687;28;82435;-91
2021/05/30 00:41:12;;;;;;;1.42;0.38;;;17.80;64.10;17.80;99774.00;;;;340299;28;88579;-88
2021/05/30 00:41:24;;;;;;;2.13;0.50;;;17.80;64.00;17.80;99764.00;;;;341825;28;83448;-91
2021/05/30 00:41:35;;;;;;;2.47;0.50;;;17.80;64.00;17.80;99762.00;;;;341577;28;91154;-90
2021/05/30 00:41:47;;;;;;;1.98;0.55;;;17.80;64.00;17.60;99758.00;;;;343320;28;82465;-89
2021/05/30 00:41:59;;;;;;;1.65;0.55;;;17.80;64.00;17.70;99762.00;;;;341456;28;89959;-91
2021/05/30 00:42:11;;;;;;;1.75;0.40;;;17.70;64.00;17.80;99762.00;;;;340510;28;82466;-91
2021/05/30 00:42:23;;;;;;;1.63;0.45;;;17.70;64.20;17.80;99765.00;;;;340234;28;89298;-91
2021/05/30 00:42:35;;;;;;;3.53;0.70;;;17.80;64.30;17.80;99764.00;;;;341168;28;83643;-90
2021/05/30 00:42:48;;;;;;;4.55;0.70;;;17.70;64.20;17.80;99768.00;;;;340174;28;88361;-90
2021/05/30 00:43:00;;;;;;;3.95;0.50;;;17.70;64.20;17.80;99769.00;;;;340730;28;83374;-89
2021/05/30 00:43:12;;;;;;;3.67;0.45;;;17.70;64.20;17.70;99778.00;;;;341546;28;88736;-89
2021/05/30 00:43:24;;;;;;;2.67;0.40;;;17.70;64.20;17.60;99765.00;;;;341787;28;82561;-89
2021/05/30 00:43:53;;;;;;;1.02;0.38;;;17.70;64.10;17.60;99765.00;;;;340273;28;91218;-90
2021/05/30 00:44:25;;;;;;;0.65;0.38;;;17.70;64.20;17.60;99765.00;;;;342032;28;82512;-90
2021/05/30 00:44:37;;;;;;;0.80;0.40;;;17.70;64.30;17.70;99769.00;;;;344242;28;88866;-88
2021/05/30 00:44:49;;;;;;;0.80;0.30;;;17.70;64.20;17.80;99768.00;;;;342511;28;82428;-88
2021/05/30 00:45:00;;;;;;;1.08;0.30;;;17.70;64.20;17.80;99769.00;;;;341698;28;89004;-91
2021/05/30 00:45:13;;;;;;;0.88;0.30;;;17.70;65.10;17.80;99763.00;;;;342031;28;82527;-91
2021/05/30 00:45:24;;;;;;;1.42;0.30;;;17.70;64.40;17.90;99766.00;;;;342155;28;90660;-89
2021/05/30 00:45:36;;;;;;;1.50;0.30;;;17.70;64.30;17.80;99763.00;;;;338782;28;82368;-93
2021/05/30 00:45:49;;;;;;;1.60;0.40;;;17.70;64.20;17.70;99765.00;;;;340478;28;91493;-92
2021/05/30 00:46:00;;;;;;;1.23;0.57;;;17.70;64.80;17.70;99766.00;;;;339127;28;82473;-93
2021/05/30 00:46:12;;;;;;;1.30;0.60;;;17.70;64.20;17.60;99766.00;;;;338573;28;89619;-89
2021/05/30 00:46:24;;;;;;;1.27;0.50;;;17.70;64.20;17.60;99762.00;;;;340405;28;83371;-92
2021/05/30 00:46:36;;;;;;;1.60;0.30;;;17.70;65.10;17.70;99766.00;;;;338637;28;91592;-91
2021/05/30 00:46:49;;;;;;;1.63;0.30;;;17.70;64.50;17.60;99760.00;;;;338960;28;84532;-92
2021/05/30 00:47:01;;;;;;;1.30;0.32;;;17.70;64.50;17.70;99764.00;;;;341433;28;90370;-92
2021/05/30 00:47:13;;;;;;;1.65;0.50;;;17.70;64.40;17.70;99757.00;;;;340242;28;83428;-92
2021/05/30 00:47:25;;;;;;;1.20;0.40;;;17.70;64.30;17.70;99763.00;;;;339203;28;89792;-92
2021/05/30 00:47:37;;;;;;;1.33;0.38;;;17.70;64.20;17.70;99761.00;;;;341659;28;83443;-92
2021/05/30 00:47:49;;;;;;;1.35;0.40;;;17.70;64.20;17.70;99770.00;;;;340086;28;87618;-92
2021/05/30 00:48:01;;;;;;;1.67;0.70;;;17.70;64.30;17.60;99755.00;;;;340162;28;82534;-91
2021/05/30 00:48:13;;;;;;;1.58;0.70;;;17.70;64.20;17.50;99764.00;;;;339545;28;92777;-91
2021/05/30 00:48:24;;;;;;;1.48;0.63;;;17.60;64.20;17.60;99762.00;;;;339265;28;82713;-90
2021/05/30 00:48:36;;;;;;;2.00;0.50;;;17.60;64.30;17.50;99764.00;;;;340247;28;88773;-92
2021/05/30 00:48:48;;;;;;;1.50;0.60;;;17.60;64.40;17.60;99765.00;;;;340587;28;83553;-92
2021/05/30 00:49:00;;;;;;;1.58;0.57;;;17.70;64.90;17.70;99764.00;;;;341337;28;90050;-92
2021/05/30 00:49:12;;;;;;;1.85;0.55;;;17.60;64.30;17.70;99761.00;;;;340363;28;85070;-92
2021/05/30 00:49:24;;;;;;;1.90;0.40;;;17.70;64.40;17.60;99762.00;;;;341366;28;91075;-92
2021/05/30 00:49:36;;;;;;;1.75;0.30;;;17.70;65.00;17.60;99765.00;;;;340975;28;82340;-90
2021/05/30 00:49:48;;;;;;;1.67;0.30;;;17.60;64.30;17.60;99756.00;;;;337635;28;90094;-92
2021/05/30 00:50:00;;;;;;;2.60;0.60;;;17.70;64.50;17.70;99762.00;;;;338345;28;83445;-92
2021/05/30 00:50:12;;;;;;;2.60;0.60;;;17.60;64.40;17.70;99762.00;;;;337422;28;91354;-92
2021/05/30 00:50:24;;;;;;;1.77;0.35;;;17.60;64.40;17.70;99770.00;;;;340492;28;83402;-92
2021/05/30 00:50:36;;;;;;;1.10;0.30;;;17.60;64.40;17.70;99763.00;;;;340183;28;90428;-92
2021/05/30 00:50:48;;;;;;;1.23;0.38;;;17.70;64.50;17.70;99764.00;;;;342538;28;83042;-92
2021/05/30 00:51:04;;;;;;;1.73;0.47;;;17.70;65.20;17.70;99772.00;;;;338727;28;92380;-92
2021/05/30 00:51:16;;;;;;;2.00;0.50;;;17.70;64.50;17.70;99765.00;;;;339584;28;84553;-91
2021/05/30 00:51:27;;;;;;;1.40;0.50;;;17.60;64.60;17.60;99762.00;;;;338776;28;88327;-92
2021/05/30 00:51:40;;;;;;;0.93;0.40;;;17.70;64.50;17.60;99766.00;;;;340400;28;83044;-90
2021/05/30 00:51:52;;;;;;;2.10;0.50;;;17.70;64.50;17.60;99759.00;;;;336750;28;91138;-93
2021/05/30 00:52:05;;;;;;;1.98;0.50;;;17.60;64.40;17.70;99766.00;;;;337829;28;82381;-90
2021/05/30 00:52:17;;;;;;;1.40;0.47;;;17.70;64.40;17.70;99766.00;;;;339671;28;90846;-91
2021/05/30 00:52:29;;;;;;;1.40;0.30;;;17.60;64.30;17.70;99770.00;;;;339633;28;84216;-92
2021/05/30 00:52:42;;;;;;;1.17;0.30;;;17.70;64.40;17.70;99767.00;;;;340038;28;90901;-92
2021/05/30 00:52:53;;;;;;;1.27;0.30;;;17.70;64.50;17.70;99770.00;;;;340283;28;83376;-90
2021/05/30 00:53:06;;;;;;;1.40;0.30;;;17.70;64.50;17.60;99773.00;;;;340756;28;89301;-92
2021/05/30 00:53:18;;;;;;;1.70;0.43;;;17.60;64.30;17.70;99771.00;;;;341566;28;82461;-88
2021/05/30 00:53:30;;;;;;;1.20;0.50;;;17.70;64.20;17.60;99765.00;;;;341850;28;88257;-89
2021/05/30 00:53:43;;;;;;;1.10;0.50;;;17.70;64.20;17.60;99765.00;;;;340468;28;84439;-90
2021/05/30 00:53:54;;;;;;;1.05;0.30;;;17.70;64.20;17.60;99765.00;;;;339921;28;89540;-92
2021/05/30 00:54:07;;;;;;;1.20;0.40;;;17.70;64.30;17.60;99774.00;;;;339161;28;83556;-90
2021/05/30 00:54:19;;;;;;;0.73;0.32;;;17.70;64.30;17.60;99771.00;;;;338392;28;91683;-89
2021/05/30 00:54:30;;;;;;;1.02;0.38;;;17.70;64.30;17.60;99762.00;;;;339428;28;85594;-92
2021/05/30 00:54:42;;;;;;;1.17;0.30;;;17.70;64.20;17.60;99765.00;;;;338301;28;91444;-93
2021/05/30 00:54:54;;;;;;;1.17;0.30;;;17.60;64.30;17.60;99769.00;;;;339758;28;84547;-91
2021/05/30 00:55:07;;;;;;;1.80;0.30;;;17.60;64.30;17.60;99769.00;;;;340754;28;92590;-91
2021/05/30 00:55:18;;;;;;;1.95;0.30;;;17.60;64.50;17.60;99766.00;;;;342072;28;83504;-91